sensor_id;sensor_type;location;lat;lon;timestamp;P1;durP1;ratioP1;P2;durP2;ratioP2
66169;SDS011;66757;44.024;20.456;2023-03-01T00:00:54;43.38;;;21.15;;
66169;SDS011;66757;44.024;20.456;2023-03-01T00:03:19;39.33;;;20.25;;
66169;SDS011;66757;44.024;20.456;2023-03-01T00:05:45;43.95;;;23.67;;
66169;SDS011;66757;44.024;20.456;2023-03-01T00:08:10;47.25;;;23.70;;
66169;SDS011;66757;44.024;20.456;2023-03-01T00:10:36;49.83;;;22.88;;
66169;SDS011;66757;44.024;20.456;2023-03-01T00:13:01;47.45;;;23.42;;
66169;SDS011;66757;44.024;20.456;2023-03-01T00:15:27;41.15;;;20.98;;
66169;SDS011;66757;44.024;20.456;2023-03-01T00:17:52;40.33;;;20.52;;
66169;SDS011;66757;44.024;20.456;2023-03-01T00:20:18;38.42;;;20.33;;
66169;SDS011;66757;44.024;20.456;2023-03-01T00:22:43;35.25;;;19.00;;
66169;SDS011;66757;44.024;20.456;2023-03-01T00:25:10;33.70;;;18.98;;
66169;SDS011;66757;44.024;20.456;2023-03-01T00:27:36;34.90;;;16.30;;
66169;SDS011;66757;44.024;20.456;2023-03-01T00:30:01;29.83;;;15.90;;
66169;SDS011;66757;44.024;20.456;2023-03-01T00:32:26;35.10;;;18.52;;
66169;SDS011;66757;44.024;20.456;2023-03-01T00:34:52;27.90;;;15.70;;
66169;SDS011;66757;44.024;20.456;2023-03-01T00:37:20;29.88;;;15.38;;
66169;SDS011;66757;44.024;20.456;2023-03-01T00:39:47;25.75;;;15.05;;
66169;SDS011;66757;44.024;20.456;2023-03-01T00:42:12;27.23;;;14.05;;
66169;SDS011;66757;44.024;20.456;2023-03-01T00:44:38;28.63;;;14.73;;
66169;SDS011;66757;44.024;20.456;2023-03-01T00:47:03;27.83;;;15.55;;
66169;SDS011;66757;44.024;20.456;2023-03-01T00:49:28;30.13;;;15.45;;
66169;SDS011;66757;44.024;20.456;2023-03-01T00:51:54;27.40;;;13.88;;
66169;SDS011;66757;44.024;20.456;2023-03-01T00:54:20;23.00;;;13.32;;
66169;SDS011;66757;44.024;20.456;2023-03-01T00:56:45;26.33;;;13.70;;
66169;SDS011;66757;44.024;20.456;2023-03-01T00:59:11;26.60;;;13.05;;
66169;SDS011;66757;44.024;20.456;2023-03-01T01:01:36;25.63;;;14.30;;
66169;SDS011;66757;44.024;20.456;2023-03-01T01:04:03;28.00;;;14.20;;
66169;SDS011;66757;44.024;20.456;2023-03-01T01:06:33;31.45;;;17.17;;
66169;SDS011;66757;44.024;20.456;2023-03-01T01:08:59;25.23;;;14.63;;
66169;SDS011;66757;44.024;20.456;2023-03-01T01:11:25;26.02;;;14.45;;
66169;SDS011;66757;44.024;20.456;2023-03-01T01:13:51;30.20;;;14.27;;
66169;SDS011;66757;44.024;20.456;2023-03-01T01:16:17;24.23;;;13.13;;
66169;SDS011;66757;44.024;20.456;2023-03-01T01:18:43;36.80;;;18.15;;
66169;SDS011;66757;44.024;20.456;2023-03-01T01:21:11;36.25;;;19.70;;
66169;SDS011;66757;44.024;20.456;2023-03-01T01:23:37;28.20;;;15.50;;
66169;SDS011;66757;44.024;20.456;2023-03-01T01:26:03;27.23;;;14.18;;
66169;SDS011;66757;44.024;20.456;2023-03-01T01:28:29;21.63;;;11.27;;
66169;SDS011;66757;44.024;20.456;2023-03-01T01:30:54;24.38;;;13.80;;
66169;SDS011;66757;44.024;20.456;2023-03-01T01:33:20;22.88;;;13.60;;
66169;SDS011;66757;44.024;20.456;2023-03-01T01:35:45;25.08;;;11.90;;
66169;SDS011;66757;44.024;20.456;2023-03-01T01:38:10;23.80;;;12.85;;
66169;SDS011;66757;44.024;20.456;2023-03-01T01:40:42;22.60;;;12.25;;
66169;SDS011;66757;44.024;20.456;2023-03-01T01:43:10;22.58;;;11.82;;
66169;SDS011;66757;44.024;20.456;2023-03-01T01:45:38;21.20;;;11.65;;
66169;SDS011;66757;44.024;20.456;2023-03-01T01:48:05;18.48;;;9.45;;
66169;SDS011;66757;44.024;20.456;2023-03-01T01:50:31;24.90;;;12.95;;
66169;SDS011;66757;44.024;20.456;2023-03-01T01:53:04;23.15;;;12.57;;
66169;SDS011;66757;44.024;20.456;2023-03-01T01:55:29;27.52;;;16.42;;
66169;SDS011;66757;44.024;20.456;2023-03-01T01:57:56;22.90;;;11.85;;
66169;SDS011;66757;44.024;20.456;2023-03-01T02:00:26;23.38;;;11.70;;
66169;SDS011;66757;44.024;20.456;2023-03-01T02:02:59;24.63;;;13.57;;
66169;SDS011;66757;44.024;20.456;2023-03-01T02:05:32;21.60;;;12.13;;
66169;SDS011;66757;44.024;20.456;2023-03-01T02:08:00;38.72;;;21.77;;
66169;SDS011;66757;44.024;20.456;2023-03-01T02:10:25;15.45;;;10.07;;
66169;SDS011;66757;44.024;20.456;2023-03-01T02:12:51;15.88;;;8.48;;
66169;SDS011;66757;44.024;20.456;2023-03-01T02:15:17;14.20;;;8.70;;
66169;SDS011;66757;44.024;20.456;2023-03-01T02:17:43;44.10;;;29.10;;
66169;SDS011;66757;44.024;20.456;2023-03-01T02:22:40;22.10;;;13.57;;
66169;SDS011;66757;44.024;20.456;2023-03-01T02:27:53;20.20;;;12.68;;
66169;SDS011;66757;44.024;20.456;2023-03-01T02:30:22;18.45;;;11.73;;
66169;SDS011;66757;44.024;20.456;2023-03-01T02:32:51;19.58;;;11.52;;
66169;SDS011;66757;44.024;20.456;2023-03-01T02:35:17;40.25;;;23.77;;
66169;SDS011;66757;44.024;20.456;2023-03-01T02:37:43;113.55;;;69.25;;
66169;SDS011;66757;44.024;20.456;2023-03-01T02:40:18;54.72;;;33.20;;
66169;SDS011;66757;44.024;20.456;2023-03-01T02:42:54;39.20;;;23.92;;
66169;SDS011;66757;44.024;20.456;2023-03-01T02:45:20;36.42;;;20.85;;
66169;SDS011;66757;44.024;20.456;2023-03-01T02:47:46;33.72;;;19.88;;
66169;SDS011;66757;44.024;20.456;2023-03-01T02:55:26;104.47;;;56.05;;
66169;SDS011;66757;44.024;20.456;2023-03-01T02:57:52;59.38;;;31.70;;
66169;SDS011;66757;44.024;20.456;2023-03-01T03:00:23;35.25;;;19.92;;
66169;SDS011;66757;44.024;20.456;2023-03-01T03:02:50;25.27;;;14.35;;
66169;SDS011;66757;44.024;20.456;2023-03-01T03:05:18;39.40;;;22.73;;
66169;SDS011;66757;44.024;20.456;2023-03-01T03:07:44;25.63;;;16.83;;
66169;SDS011;66757;44.024;20.456;2023-03-01T03:10:12;21.58;;;12.90;;
66169;SDS011;66757;44.024;20.456;2023-03-01T03:12:38;36.75;;;22.75;;
66169;SDS011;66757;44.024;20.456;2023-03-01T03:15:04;32.15;;;19.70;;
66169;SDS011;66757;44.024;20.456;2023-03-01T03:17:34;35.03;;;20.58;;
66169;SDS011;66757;44.024;20.456;2023-03-01T03:20:00;18.77;;;11.75;;
66169;SDS011;66757;44.024;20.456;2023-03-01T03:22:25;64.10;;;34.65;;
66169;SDS011;66757;44.024;20.456;2023-03-01T03:24:53;29.63;;;16.50;;
66169;SDS011;66757;44.024;20.456;2023-03-01T03:27:19;36.90;;;23.60;;
66169;SDS011;66757;44.024;20.456;2023-03-01T03:29:44;21.73;;;13.20;;
66169;SDS011;66757;44.024;20.456;2023-03-01T03:32:09;54.58;;;31.55;;
66169;SDS011;66757;44.024;20.456;2023-03-01T03:34:35;18.95;;;10.85;;
66169;SDS011;66757;44.024;20.456;2023-03-01T03:37:00;24.13;;;13.68;;
66169;SDS011;66757;44.024;20.456;2023-03-01T03:39:26;21.77;;;13.60;;
66169;SDS011;66757;44.024;20.456;2023-03-01T03:41:52;30.63;;;18.08;;
66169;SDS011;66757;44.024;20.456;2023-03-01T03:44:17;21.42;;;13.32;;
66169;SDS011;66757;44.024;20.456;2023-03-01T03:46:43;17.48;;;10.63;;
66169;SDS011;66757;44.024;20.456;2023-03-01T03:49:08;12.23;;;7.93;;
66169;SDS011;66757;44.024;20.456;2023-03-01T03:51:33;11.35;;;7.28;;
66169;SDS011;66757;44.024;20.456;2023-03-01T03:53:58;16.25;;;10.25;;
66169;SDS011;66757;44.024;20.456;2023-03-01T03:56:24;18.10;;;12.52;;
66169;SDS011;66757;44.024;20.456;2023-03-01T03:58:51;12.02;;;8.38;;
66169;SDS011;66757;44.024;20.456;2023-03-01T04:01:16;10.35;;;6.97;;
66169;SDS011;66757;44.024;20.456;2023-03-01T04:03:42;17.60;;;11.65;;
66169;SDS011;66757;44.024;20.456;2023-03-01T04:06:11;18.90;;;10.10;;
66169;SDS011;66757;44.024;20.456;2023-03-01T04:08:37;14.57;;;9.32;;
66169;SDS011;66757;44.024;20.456;2023-03-01T04:11:03;12.13;;;7.88;;
66169;SDS011;66757;44.024;20.456;2023-03-01T04:13:49;18.05;;;10.25;;
66169;SDS011;66757;44.024;20.456;2023-03-01T04:16:17;19.95;;;10.80;;
66169;SDS011;66757;44.024;20.456;2023-03-01T04:18:43;23.48;;;15.13;;
66169;SDS011;66757;44.024;20.456;2023-03-01T04:21:08;15.02;;;8.57;;
66169;SDS011;66757;44.024;20.456;2023-03-01T04:23:34;15.23;;;10.05;;
66169;SDS011;66757;44.024;20.456;2023-03-01T04:26:00;14.50;;;8.45;;
66169;SDS011;66757;44.024;20.456;2023-03-01T04:28:29;11.75;;;8.23;;
66169;SDS011;66757;44.024;20.456;2023-03-01T04:30:56;16.15;;;12.35;;
66169;SDS011;66757;44.024;20.456;2023-03-01T04:33:22;14.55;;;9.32;;
66169;SDS011;66757;44.024;20.456;2023-03-01T04:35:49;15.20;;;9.57;;
66169;SDS011;66757;44.024;20.456;2023-03-01T04:38:15;14.80;;;8.93;;
66169;SDS011;66757;44.024;20.456;2023-03-01T04:40:40;16.52;;;10.23;;
66169;SDS011;66757;44.024;20.456;2023-03-01T04:43:08;14.95;;;8.70;;
66169;SDS011;66757;44.024;20.456;2023-03-01T04:45:33;13.73;;;9.13;;
66169;SDS011;66757;44.024;20.456;2023-03-01T04:47:59;16.10;;;10.05;;
66169;SDS011;66757;44.024;20.456;2023-03-01T04:50:24;16.50;;;9.90;;
66169;SDS011;66757;44.024;20.456;2023-03-01T04:52:50;17.45;;;12.15;;
66169;SDS011;66757;44.024;20.456;2023-03-01T04:55:17;35.10;;;11.55;;
66169;SDS011;66757;44.024;20.456;2023-03-01T04:57:43;24.48;;;13.93;;
66169;SDS011;66757;44.024;20.456;2023-03-01T05:00:12;14.60;;;8.80;;
66169;SDS011;66757;44.024;20.456;2023-03-01T05:05:13;14.05;;;9.07;;
66169;SDS011;66757;44.024;20.456;2023-03-01T05:07:40;16.15;;;10.18;;
66169;SDS011;66757;44.024;20.456;2023-03-01T05:10:05;18.17;;;9.40;;
66169;SDS011;66757;44.024;20.456;2023-03-01T05:12:31;20.83;;;11.88;;
66169;SDS011;66757;44.024;20.456;2023-03-01T05:14:56;17.20;;;10.55;;
66169;SDS011;66757;44.024;20.456;2023-03-01T05:17:21;19.20;;;10.00;;
66169;SDS011;66757;44.024;20.456;2023-03-01T05:19:46;18.48;;;10.30;;
66169;SDS011;66757;44.024;20.456;2023-03-01T05:22:12;23.38;;;12.73;;
66169;SDS011;66757;44.024;20.456;2023-03-01T05:24:38;25.58;;;14.25;;
66169;SDS011;66757;44.024;20.456;2023-03-01T05:27:04;27.38;;;14.32;;
66169;SDS011;66757;44.024;20.456;2023-03-01T05:29:31;24.65;;;14.15;;
66169;SDS011;66757;44.024;20.456;2023-03-01T05:32:00;23.60;;;14.52;;
66169;SDS011;66757;44.024;20.456;2023-03-01T05:34:29;37.72;;;22.85;;
66169;SDS011;66757;44.024;20.456;2023-03-01T05:36:55;32.45;;;19.75;;
66169;SDS011;66757;44.024;20.456;2023-03-01T05:39:21;31.08;;;19.92;;
66169;SDS011;66757;44.024;20.456;2023-03-01T05:41:47;30.58;;;16.15;;
66169;SDS011;66757;44.024;20.456;2023-03-01T05:44:13;34.13;;;20.25;;
66169;SDS011;66757;44.024;20.456;2023-03-01T05:46:38;21.98;;;14.18;;
66169;SDS011;66757;44.024;20.456;2023-03-01T05:49:03;19.58;;;13.35;;
66169;SDS011;66757;44.024;20.456;2023-03-01T05:51:29;22.50;;;14.25;;
66169;SDS011;66757;44.024;20.456;2023-03-01T05:53:54;29.02;;;17.52;;
66169;SDS011;66757;44.024;20.456;2023-03-01T05:56:20;42.60;;;21.77;;
66169;SDS011;66757;44.024;20.456;2023-03-01T05:58:47;27.25;;;15.68;;
66169;SDS011;66757;44.024;20.456;2023-03-01T06:01:14;24.63;;;13.75;;
66169;SDS011;66757;44.024;20.456;2023-03-01T06:03:40;33.15;;;19.25;;
66169;SDS011;66757;44.024;20.456;2023-03-01T06:06:06;25.92;;;15.88;;
66169;SDS011;66757;44.024;20.456;2023-03-01T06:08:31;27.85;;;16.90;;
66169;SDS011;66757;44.024;20.456;2023-03-01T06:10:56;41.92;;;22.23;;
66169;SDS011;66757;44.024;20.456;2023-03-01T06:13:22;37.58;;;21.70;;
66169;SDS011;66757;44.024;20.456;2023-03-01T06:15:48;47.90;;;26.80;;
66169;SDS011;66757;44.024;20.456;2023-03-01T06:18:13;30.38;;;17.85;;
66169;SDS011;66757;44.024;20.456;2023-03-01T06:20:39;41.90;;;24.00;;
66169;SDS011;66757;44.024;20.456;2023-03-01T06:23:04;38.60;;;22.60;;
66169;SDS011;66757;44.024;20.456;2023-03-01T06:25:29;86.97;;;45.88;;
66169;SDS011;66757;44.024;20.456;2023-03-01T06:27:56;41.13;;;23.40;;
66169;SDS011;66757;44.024;20.456;2023-03-01T06:30:22;87.57;;;47.17;;
66169;SDS011;66757;44.024;20.456;2023-03-01T06:32:48;54.80;;;30.17;;
66169;SDS011;66757;44.024;20.456;2023-03-01T06:35:14;37.67;;;22.52;;
66169;SDS011;66757;44.024;20.456;2023-03-01T06:37:42;28.75;;;16.80;;
66169;SDS011;66757;44.024;20.456;2023-03-01T06:40:08;39.00;;;21.40;;
66169;SDS011;66757;44.024;20.456;2023-03-01T06:42:36;25.92;;;15.93;;
66169;SDS011;66757;44.024;20.456;2023-03-01T06:45:01;30.33;;;18.10;;
66169;SDS011;66757;44.024;20.456;2023-03-01T06:47:27;29.10;;;19.08;;
66169;SDS011;66757;44.024;20.456;2023-03-01T06:49:52;26.90;;;18.23;;
66169;SDS011;66757;44.024;20.456;2023-03-01T06:52:17;29.92;;;17.90;;
66169;SDS011;66757;44.024;20.456;2023-03-01T06:54:43;26.92;;;15.95;;
66169;SDS011;66757;44.024;20.456;2023-03-01T06:57:09;35.03;;;22.98;;
66169;SDS011;66757;44.024;20.456;2023-03-01T06:59:34;39.70;;;25.35;;
66169;SDS011;66757;44.024;20.456;2023-03-01T07:01:59;33.97;;;21.35;;
66169;SDS011;66757;44.024;20.456;2023-03-01T07:04:25;38.42;;;24.50;;
66169;SDS011;66757;44.024;20.456;2023-03-01T07:06:54;36.30;;;21.08;;
66169;SDS011;66757;44.024;20.456;2023-03-01T07:09:22;38.22;;;22.92;;
66169;SDS011;66757;44.024;20.456;2023-03-01T07:11:47;60.30;;;35.67;;
66169;SDS011;66757;44.024;20.456;2023-03-01T07:14:13;67.03;;;40.85;;
66169;SDS011;66757;44.024;20.456;2023-03-01T07:16:38;50.33;;;30.13;;
66169;SDS011;66757;44.024;20.456;2023-03-01T07:19:05;43.05;;;22.63;;
66169;SDS011;66757;44.024;20.456;2023-03-01T07:21:31;42.05;;;22.30;;
66169;SDS011;66757;44.024;20.456;2023-03-01T07:23:57;57.92;;;31.90;;
66169;SDS011;66757;44.024;20.456;2023-03-01T07:26:22;42.33;;;27.58;;
66169;SDS011;66757;44.024;20.456;2023-03-01T07:28:48;34.28;;;24.00;;
66169;SDS011;66757;44.024;20.456;2023-03-01T07:31:13;39.00;;;24.27;;
66169;SDS011;66757;44.024;20.456;2023-03-01T07:33:38;33.72;;;21.00;;
66169;SDS011;66757;44.024;20.456;2023-03-01T07:36:05;44.13;;;27.33;;
66169;SDS011;66757;44.024;20.456;2023-03-01T07:38:31;31.35;;;17.42;;
66169;SDS011;66757;44.024;20.456;2023-03-01T07:41:01;28.33;;;18.40;;
66169;SDS011;66757;44.024;20.456;2023-03-01T07:43:27;44.65;;;25.88;;
66169;SDS011;66757;44.024;20.456;2023-03-01T07:45:53;38.17;;;23.70;;
66169;SDS011;66757;44.024;20.456;2023-03-01T07:48:18;67.90;;;44.40;;
66169;SDS011;66757;44.024;20.456;2023-03-01T07:50:43;35.75;;;21.08;;
66169;SDS011;66757;44.024;20.456;2023-03-01T07:53:09;50.85;;;28.77;;
66169;SDS011;66757;44.024;20.456;2023-03-01T07:55:36;65.75;;;37.10;;
66169;SDS011;66757;44.024;20.456;2023-03-01T07:58:01;123.82;;;67.95;;
66169;SDS011;66757;44.024;20.456;2023-03-01T08:00:27;119.63;;;63.97;;
66169;SDS011;66757;44.024;20.456;2023-03-01T08:02:52;104.70;;;60.08;;
66169;SDS011;66757;44.024;20.456;2023-03-01T08:05:17;110.78;;;58.90;;
66169;SDS011;66757;44.024;20.456;2023-03-01T08:07:43;105.65;;;60.72;;
66169;SDS011;66757;44.024;20.456;2023-03-01T08:10:08;105.30;;;59.72;;
66169;SDS011;66757;44.024;20.456;2023-03-01T08:12:34;84.03;;;51.47;;
66169;SDS011;66757;44.024;20.456;2023-03-01T08:14:59;89.78;;;50.80;;
66169;SDS011;66757;44.024;20.456;2023-03-01T08:17:25;84.80;;;47.92;;
66169;SDS011;66757;44.024;20.456;2023-03-01T08:19:50;94.07;;;50.08;;
66169;SDS011;66757;44.024;20.456;2023-03-01T08:22:15;98.20;;;55.72;;
66169;SDS011;66757;44.024;20.456;2023-03-01T08:24:41;91.68;;;52.28;;
66169;SDS011;66757;44.024;20.456;2023-03-01T08:27:06;89.78;;;52.00;;
66169;SDS011;66757;44.024;20.456;2023-03-01T08:29:31;87.35;;;49.60;;
66169;SDS011;66757;44.024;20.456;2023-03-01T08:31:57;92.70;;;52.45;;
66169;SDS011;66757;44.024;20.456;2023-03-01T08:34:22;95.78;;;55.40;;
66169;SDS011;66757;44.024;20.456;2023-03-01T08:36:48;101.40;;;56.60;;
66169;SDS011;66757;44.024;20.456;2023-03-01T08:39:14;99.50;;;55.53;;
66169;SDS011;66757;44.024;20.456;2023-03-01T08:41:40;102.22;;;58.90;;
66169;SDS011;66757;44.024;20.456;2023-03-01T08:44:06;96.30;;;52.30;;
66169;SDS011;66757;44.024;20.456;2023-03-01T08:46:33;97.30;;;53.03;;
66169;SDS011;66757;44.024;20.456;2023-03-01T08:48:59;82.72;;;44.42;;
66169;SDS011;66757;44.024;20.456;2023-03-01T08:51:24;84.30;;;46.85;;
66169;SDS011;66757;44.024;20.456;2023-03-01T08:53:50;86.22;;;46.20;;
66169;SDS011;66757;44.024;20.456;2023-03-01T08:56:15;83.25;;;45.42;;
66169;SDS011;66757;44.024;20.456;2023-03-01T08:58:45;86.90;;;47.25;;
66169;SDS011;66757;44.024;20.456;2023-03-01T09:01:12;92.45;;;49.42;;
66169;SDS011;66757;44.024;20.456;2023-03-01T09:03:38;86.05;;;47.22;;
66169;SDS011;66757;44.024;20.456;2023-03-01T09:06:04;97.35;;;53.55;;
66169;SDS011;66757;44.024;20.456;2023-03-01T09:08:30;98.43;;;52.30;;
66169;SDS011;66757;44.024;20.456;2023-03-01T09:10:56;94.30;;;49.38;;
66169;SDS011;66757;44.024;20.456;2023-03-01T09:13:22;78.78;;;43.47;;
66169;SDS011;66757;44.024;20.456;2023-03-01T09:15:51;83.63;;;44.28;;
66169;SDS011;66757;44.024;20.456;2023-03-01T09:18:17;80.57;;;44.53;;
66169;SDS011;66757;44.024;20.456;2023-03-01T09:20:42;78.10;;;39.35;;
66169;SDS011;66757;44.024;20.456;2023-03-01T09:23:08;63.28;;;31.08;;
66169;SDS011;66757;44.024;20.456;2023-03-01T09:25:33;62.20;;;32.40;;
66169;SDS011;66757;44.024;20.456;2023-03-01T09:27:59;66.32;;;34.70;;
66169;SDS011;66757;44.024;20.456;2023-03-01T09:30:24;69.72;;;34.47;;
66169;SDS011;66757;44.024;20.456;2023-03-01T09:32:49;42.00;;;22.35;;
66169;SDS011;66757;44.024;20.456;2023-03-01T09:35:15;62.53;;;31.02;;
66169;SDS011;66757;44.024;20.456;2023-03-01T09:37:40;55.17;;;29.52;;
66169;SDS011;66757;44.024;20.456;2023-03-01T09:40:14;69.47;;;35.55;;
66169;SDS011;66757;44.024;20.456;2023-03-01T09:42:45;62.40;;;33.75;;
66169;SDS011;66757;44.024;20.456;2023-03-01T09:45:13;62.35;;;31.73;;
66169;SDS011;66757;44.024;20.456;2023-03-01T09:47:39;54.72;;;29.80;;
66169;SDS011;66757;44.024;20.456;2023-03-01T09:55:04;55.20;;;32.05;;
66169;SDS011;66757;44.024;20.456;2023-03-01T09:57:36;48.33;;;28.05;;
66169;SDS011;66757;44.024;20.456;2023-03-01T10:00:16;39.08;;;23.35;;
66169;SDS011;66757;44.024;20.456;2023-03-01T10:02:45;44.33;;;24.23;;
66169;SDS011;66757;44.024;20.456;2023-03-01T10:10:37;50.53;;;27.75;;
66169;SDS011;66757;44.024;20.456;2023-03-01T10:13:23;41.78;;;24.92;;
66169;SDS011;66757;44.024;20.456;2023-03-01T10:15:56;63.08;;;33.72;;
66169;SDS011;66757;44.024;20.456;2023-03-01T10:18:26;38.58;;;23.17;;
66169;SDS011;66757;44.024;20.456;2023-03-01T10:21:03;26.85;;;16.23;;
66169;SDS011;66757;44.024;20.456;2023-03-01T10:23:30;25.95;;;16.35;;
66169;SDS011;66757;44.024;20.456;2023-03-01T10:28:47;35.65;;;21.25;;
66169;SDS011;66757;44.024;20.456;2023-03-01T10:31:15;24.23;;;14.02;;
66169;SDS011;66757;44.024;20.456;2023-03-01T10:33:43;18.85;;;11.95;;
66169;SDS011;66757;44.024;20.456;2023-03-01T10:36:08;15.85;;;10.02;;
66169;SDS011;66757;44.024;20.456;2023-03-01T10:38:50;14.95;;;9.40;;
66169;SDS011;66757;44.024;20.456;2023-03-01T10:41:17;16.10;;;10.13;;
66169;SDS011;66757;44.024;20.456;2023-03-01T10:43:44;16.50;;;10.57;;
66169;SDS011;66757;44.024;20.456;2023-03-01T10:51:31;16.95;;;9.13;;
66169;SDS011;66757;44.024;20.456;2023-03-01T10:53:57;18.23;;;11.52;;
66169;SDS011;66757;44.024;20.456;2023-03-01T10:56:22;25.67;;;14.63;;
66169;SDS011;66757;44.024;20.456;2023-03-01T10:59:04;18.90;;;13.35;;
66169;SDS011;66757;44.024;20.456;2023-03-01T11:01:33;23.75;;;13.02;;
66169;SDS011;66757;44.024;20.456;2023-03-01T11:06:32;106.45;;;63.97;;
66169;SDS011;66757;44.024;20.456;2023-03-01T11:09:21;67.90;;;45.25;;
66169;SDS011;66757;44.024;20.456;2023-03-01T11:11:44;48.67;;;37.50;;
66169;SDS011;66757;44.024;20.456;2023-03-01T11:14:15;24.98;;;17.75;;
66169;SDS011;66757;44.024;20.456;2023-03-01T11:16:42;19.65;;;12.02;;
66169;SDS011;66757;44.024;20.456;2023-03-01T11:21:47;50.60;;;29.27;;
66169;SDS011;66757;44.024;20.456;2023-03-01T11:24:14;38.42;;;21.95;;
66169;SDS011;66757;44.024;20.456;2023-03-01T11:26:42;25.25;;;15.98;;
66169;SDS011;66757;44.024;20.456;2023-03-01T11:29:18;29.13;;;20.27;;
66169;SDS011;66757;44.024;20.456;2023-03-01T11:31:46;23.60;;;16.65;;
66169;SDS011;66757;44.024;20.456;2023-03-01T11:34:18;27.63;;;14.90;;
66169;SDS011;66757;44.024;20.456;2023-03-01T11:36:50;23.30;;;14.40;;
66169;SDS011;66757;44.024;20.456;2023-03-01T11:41:44;32.85;;;21.55;;
66169;SDS011;66757;44.024;20.456;2023-03-01T11:44:17;23.42;;;14.73;;
66169;SDS011;66757;44.024;20.456;2023-03-01T11:56:43;30.20;;;17.92;;
66169;SDS011;66757;44.024;20.456;2023-03-01T12:04:45;26.48;;;16.50;;
66169;SDS011;66757;44.024;20.456;2023-03-01T12:06:56;31.27;;;18.10;;
66169;SDS011;66757;44.024;20.456;2023-03-01T12:19:39;25.02;;;14.60;;
66169;SDS011;66757;44.024;20.456;2023-03-01T12:24:39;27.20;;;16.33;;
66169;SDS011;66757;44.024;20.456;2023-03-01T12:38:06;23.75;;;13.95;;
66169;SDS011;66757;44.024;20.456;2023-03-01T12:41:00;44.10;;;26.25;;
66169;SDS011;66757;44.024;20.456;2023-03-01T12:50:53;21.25;;;14.27;;
66169;SDS011;66757;44.024;20.456;2023-03-01T12:53:24;21.13;;;12.95;;
66169;SDS011;66757;44.024;20.456;2023-03-01T12:55:50;46.00;;;26.08;;
66169;SDS011;66757;44.024;20.456;2023-03-01T13:09:18;34.67;;;19.52;;
66169;SDS011;66757;44.024;20.456;2023-03-01T13:11:45;22.20;;;13.93;;
66169;SDS011;66757;44.024;20.456;2023-03-01T13:16:48;35.97;;;18.58;;
66169;SDS011;66757;44.024;20.456;2023-03-01T13:19:20;19.88;;;10.48;;
66169;SDS011;66757;44.024;20.456;2023-03-01T13:21:46;24.70;;;14.07;;
66169;SDS011;66757;44.024;20.456;2023-03-01T13:29:50;31.30;;;16.55;;
66169;SDS011;66757;44.024;20.456;2023-03-01T13:32:24;16.45;;;10.15;;
66169;SDS011;66757;44.024;20.456;2023-03-01T13:34:51;11.32;;;6.60;;
66169;SDS011;66757;44.024;20.456;2023-03-01T13:37:21;16.88;;;8.68;;
66169;SDS011;66757;44.024;20.456;2023-03-01T13:39:46;10.65;;;7.40;;
66169;SDS011;66757;44.024;20.456;2023-03-01T13:47:42;23.67;;;13.95;;
66169;SDS011;66757;44.024;20.456;2023-03-01T13:50:15;12.40;;;8.80;;
66169;SDS011;66757;44.024;20.456;2023-03-01T13:52:44;12.10;;;7.80;;
66169;SDS011;66757;44.024;20.456;2023-03-01T13:57:39;17.27;;;10.25;;
66169;SDS011;66757;44.024;20.456;2023-03-01T14:00:07;8.60;;;5.88;;
66169;SDS011;66757;44.024;20.456;2023-03-01T14:02:33;14.52;;;8.45;;
66169;SDS011;66757;44.024;20.456;2023-03-01T14:04:59;14.15;;;8.32;;
66169;SDS011;66757;44.024;20.456;2023-03-01T14:07:26;11.07;;;7.38;;
66169;SDS011;66757;44.024;20.456;2023-03-01T14:09:55;15.23;;;8.27;;
66169;SDS011;66757;44.024;20.456;2023-03-01T14:19:47;12.27;;;7.85;;
66169;SDS011;66757;44.024;20.456;2023-03-01T14:25:21;63.67;;;28.57;;
66169;SDS011;66757;44.024;20.456;2023-03-01T14:27:51;54.10;;;25.23;;
66169;SDS011;66757;44.024;20.456;2023-03-01T14:30:21;8.35;;;5.38;;
66169;SDS011;66757;44.024;20.456;2023-03-01T14:32:55;11.38;;;5.40;;
66169;SDS011;66757;44.024;20.456;2023-03-01T14:35:22;42.08;;;21.02;;
66169;SDS011;66757;44.024;20.456;2023-03-01T14:37:47;43.38;;;20.00;;
66169;SDS011;66757;44.024;20.456;2023-03-01T14:40:22;12.65;;;7.53;;
66169;SDS011;66757;44.024;20.456;2023-03-01T14:42:48;5.68;;;3.58;;
66169;SDS011;66757;44.024;20.456;2023-03-01T14:45:15;9.75;;;6.70;;
66169;SDS011;66757;44.024;20.456;2023-03-01T14:47:40;11.27;;;6.75;;
66169;SDS011;66757;44.024;20.456;2023-03-01T14:50:10;23.02;;;11.38;;
66169;SDS011;66757;44.024;20.456;2023-03-01T14:52:41;19.45;;;9.95;;
66169;SDS011;66757;44.024;20.456;2023-03-01T14:55:13;57.33;;;25.38;;
66169;SDS011;66757;44.024;20.456;2023-03-01T14:57:42;15.02;;;7.88;;
66169;SDS011;66757;44.024;20.456;2023-03-01T15:00:12;8.63;;;4.78;;
66169;SDS011;66757;44.024;20.456;2023-03-01T15:02:40;5.18;;;3.25;;
66169;SDS011;66757;44.024;20.456;2023-03-01T15:05:08;4.50;;;3.28;;
66169;SDS011;66757;44.024;20.456;2023-03-01T15:07:36;25.98;;;12.18;;
66169;SDS011;66757;44.024;20.456;2023-03-01T15:10:03;28.48;;;13.95;;
66169;SDS011;66757;44.024;20.456;2023-03-01T15:12:36;25.05;;;13.73;;
66169;SDS011;66757;44.024;20.456;2023-03-01T15:15:06;8.27;;;4.43;;
66169;SDS011;66757;44.024;20.456;2023-03-01T15:17:43;69.25;;;35.42;;
66169;SDS011;66757;44.024;20.456;2023-03-01T15:20:18;29.60;;;17.52;;
66169;SDS011;66757;44.024;20.456;2023-03-01T15:22:46;50.85;;;26.15;;
66169;SDS011;66757;44.024;20.456;2023-03-01T15:25:19;59.40;;;29.05;;
66169;SDS011;66757;44.024;20.456;2023-03-01T15:27:46;42.80;;;20.98;;
66169;SDS011;66757;44.024;20.456;2023-03-01T15:30:31;91.80;;;45.85;;
66169;SDS011;66757;44.024;20.456;2023-03-01T15:35:50;11.80;;;7.35;;
66169;SDS011;66757;44.024;20.456;2023-03-01T15:38:30;35.72;;;18.80;;
66169;SDS011;66757;44.024;20.456;2023-03-01T15:40:57;23.80;;;13.93;;
66169;SDS011;66757;44.024;20.456;2023-03-01T15:46:11;10.95;;;6.15;;
66169;SDS011;66757;44.024;20.456;2023-03-01T15:48:39;69.93;;;33.70;;
66169;SDS011;66757;44.024;20.456;2023-03-01T15:51:09;24.83;;;13.02;;
66169;SDS011;66757;44.024;20.456;2023-03-01T15:53:36;20.65;;;10.90;;
66169;SDS011;66757;44.024;20.456;2023-03-01T15:56:02;8.98;;;6.25;;
66169;SDS011;66757;44.024;20.456;2023-03-01T15:58:27;54.20;;;26.65;;
66169;SDS011;66757;44.024;20.456;2023-03-01T16:00:53;120.25;;;58.75;;
66169;SDS011;66757;44.024;20.456;2023-03-01T16:03:21;94.50;;;46.20;;
66169;SDS011;66757;44.024;20.456;2023-03-01T16:05:48;27.40;;;13.88;;
66169;SDS011;66757;44.024;20.456;2023-03-01T16:08:13;89.03;;;45.33;;
66169;SDS011;66757;44.024;20.456;2023-03-01T16:10:39;95.68;;;47.78;;
66169;SDS011;66757;44.024;20.456;2023-03-01T16:13:05;27.33;;;15.20;;
66169;SDS011;66757;44.024;20.456;2023-03-01T16:15:31;17.27;;;10.10;;
66169;SDS011;66757;44.024;20.456;2023-03-01T16:17:57;12.90;;;8.43;;
66169;SDS011;66757;44.024;20.456;2023-03-01T16:20:25;16.80;;;11.15;;